createdAt,value
2023-05-10T00:02:07.088Z,117.31
2023-05-10T00:04:41.940Z,117.69
2023-05-10T00:07:14.345Z,127.39
2023-05-10T00:09:46.756Z,133.62
2023-05-10T00:12:18.932Z,132.84
2023-05-10T00:14:51.089Z,134.15
2023-05-10T00:17:23.340Z,140.09
2023-05-10T00:19:58.687Z,142.74
2023-05-10T00:22:30.960Z,145.48
2023-05-10T00:25:03.341Z,151.53
2023-05-10T00:27:35.741Z,144.41
2023-05-10T00:30:08.689Z,152.68
2023-05-10T00:32:40.915Z,151.45
2023-05-10T00:35:15.981Z,160.01
2023-05-10T00:37:48.237Z,162.16
2023-05-10T00:40:20.598Z,161.55
2023-05-10T00:42:52.867Z,167.02
2023-05-10T00:45:25.398Z,167.59
2023-05-10T00:47:57.973Z,173.31
2023-05-10T00:50:33.336Z,182.04
2023-05-10T00:53:07.408Z,176.91
2023-05-10T00:55:39.926Z,179.62
2023-05-10T00:58:12.229Z,179.61
2023-05-10T01:00:47.585Z,180.26
2023-05-10T01:03:20.044Z,184.94
2023-05-10T01:05:55.175Z,185.65
2023-05-10T01:08:27.726Z,183.53
2023-05-10T01:11:00.447Z,184.81
2023-05-10T01:13:39.085Z,185.34
2023-05-10T01:16:12.934Z,184.01
2023-05-10T01:18:46.932Z,183.54
2023-05-10T01:21:35.013Z,183.55
2023-05-10T01:24:37.509Z,177.08
2023-05-10T01:27:39.532Z,180.21
2023-05-10T01:30:50.614Z,178.67
2023-05-10T01:33:31.902Z,180.45
2023-05-10T01:36:13.672Z,178.79
2023-05-10T01:38:52.287Z,175.81
2023-05-10T01:41:35.237Z,170.91
2023-05-10T01:44:19.319Z,175.87
2023-05-10T01:47:01.641Z,184.62
2023-05-10T01:49:44.615Z,181.61
2023-05-10T01:52:21.907Z,180.04
2023-05-10T01:55:00.370Z,179.23
2023-05-10T01:57:40.489Z,184.24
2023-05-10T02:00:16.394Z,185.97
2023-05-10T02:02:53.356Z,186.09
2023-05-10T02:05:31.318Z,182.09
2023-05-10T02:08:05.324Z,187.01
2023-05-10T02:10:39.087Z,187.69
2023-05-10T02:13:14.983Z,187.58
2023-05-10T02:15:52.021Z,185.55
2023-05-10T02:18:24.592Z,183.66
2023-05-10T02:21:02.540Z,188.31
2023-05-10T02:23:36.637Z,185.30
2023-05-10T02:26:11.206Z,185.42
2023-05-10T02:28:47.231Z,184.49
2023-05-10T02:31:21.243Z,186.48
2023-05-10T02:33:55.494Z,182.88
2023-05-10T02:36:32.614Z,188.24
2023-05-10T02:39:10.701Z,188.18
2023-05-10T02:41:46.888Z,189.83
2023-05-10T02:44:23.353Z,194.66
2023-05-10T02:46:57.144Z,198.00
2023-05-10T02:49:29.464Z,198.11
2023-05-10T02:52:10.246Z,192.88
2023-05-10T02:54:50.223Z,195.95
2023-05-10T02:57:27.214Z,198.94
2023-05-10T03:00:01.400Z,201.02
2023-05-10T03:02:34.083Z,199.20
2023-05-10T03:05:06.839Z,205.06
2023-05-10T03:07:42.127Z,204.96
2023-05-10T03:10:15.751Z,214.31
2023-05-10T03:13:04.983Z,218.69
2023-05-10T03:15:48.368Z,215.04
2023-05-10T03:18:27.312Z,215.56
2023-05-10T03:21:06.352Z,210.92
2023-05-10T03:23:51.043Z,211.97
2023-05-10T03:26:29.356Z,205.92
2023-05-10T03:29:03.537Z,206.21
2023-05-10T03:31:36.400Z,200.21
2023-05-10T03:34:08.663Z,200.11
2023-05-10T03:36:41.036Z,200.73
2023-05-10T03:39:16.068Z,201.00
2023-05-10T03:41:48.281Z,198.94
2023-05-10T03:44:20.554Z,198.81
2023-05-10T03:46:53.129Z,195.69
2023-05-10T03:49:25.417Z,198.40
2023-05-10T03:51:57.720Z,201.84
2023-05-10T03:54:33.351Z,194.76
2023-05-10T03:57:06.288Z,200.83
2023-05-10T03:59:38.499Z,203.47
2023-05-10T04:02:10.722Z,196.06
2023-05-10T04:04:43.021Z,199.63
2023-05-10T04:07:15.418Z,191.31
2023-05-10T04:09:50.165Z,192.87
2023-05-10T04:12:22.367Z,194.85
2023-05-10T04:14:54.554Z,192.62
2023-05-10T04:17:26.793Z,193.92
2023-05-10T04:19:59.506Z,193.31
2023-05-10T04:22:31.702Z,189.07
2023-05-10T04:25:06.760Z,192.21
2023-05-10T04:27:39.048Z,185.54
2023-05-10T04:30:12.911Z,190.59
2023-05-10T04:32:45.179Z,184.49
2023-05-10T04:35:17.841Z,192.40
2023-05-10T04:37:50.019Z,183.96
2023-05-10T04:40:24.800Z,182.98
2023-05-10T04:42:56.965Z,185.03
2023-05-10T04:45:29.392Z,187.17
2023-05-10T04:48:01.578Z,191.21
2023-05-10T04:50:33.789Z,183.24
2023-05-10T04:53:05.945Z,186.11
2023-05-10T04:55:41.201Z,191.47
2023-05-10T04:58:13.461Z,186.80
2023-05-10T05:00:45.700Z,191.68
2023-05-10T05:03:17.986Z,190.14
2023-05-10T05:05:50.381Z,189.89
2023-05-10T05:08:22.610Z,189.14
2023-05-10T05:10:57.369Z,196.64
2023-05-10T05:13:29.690Z,194.12
2023-05-10T05:16:02.534Z,195.24
2023-05-10T05:18:34.889Z,189.17
2023-05-10T05:21:07.195Z,194.84
2023-05-10T05:23:39.411Z,204.08
2023-05-10T05:26:16.113Z,195.69
2023-05-10T05:28:49.879Z,199.48
2023-05-10T05:31:22.114Z,205.14
2023-05-10T05:33:54.344Z,208.74
2023-05-10T05:36:27.457Z,211.19
2023-05-10T05:38:59.709Z,205.76
2023-05-10T05:41:34.574Z,200.41
2023-05-10T05:44:06.879Z,199.19
2023-05-10T05:46:39.385Z,206.33
2023-05-10T05:49:11.558Z,201.69
2023-05-10T05:51:44.220Z,192.50
2023-05-10T05:54:16.459Z,191.77
2023-05-10T05:56:51.636Z,189.37
2023-05-10T05:59:23.951Z,191.91
2023-05-10T06:01:56.585Z,193.72
2023-05-10T06:04:29.052Z,196.05
2023-05-10T06:07:01.452Z,183.93
2023-05-10T06:09:33.646Z,175.53
2023-05-10T06:12:08.713Z,174.96
2023-05-10T06:14:40.953Z,176.80
2023-05-10T06:17:13.385Z,184.40
2023-05-10T06:19:45.627Z,187.04
2023-05-10T06:22:17.781Z,187.70
2023-05-10T06:24:49.989Z,183.05
2023-05-10T06:27:25.650Z,182.79
2023-05-10T06:30:11.831Z,178.36
2023-05-10T06:32:45.108Z,171.27
2023-05-10T06:35:18.914Z,167.57
2023-05-10T06:37:51.227Z,169.42
2023-05-10T06:40:23.709Z,167.26
2023-05-10T06:42:58.652Z,156.86
2023-05-10T06:45:31.162Z,147.26
2023-05-10T06:48:03.806Z,144.11
2023-05-10T06:50:36.063Z,146.11
2023-05-10T06:53:08.727Z,137.43
2023-05-10T06:55:41.197Z,143.08
2023-05-10T06:58:16.036Z,132.92
2023-05-10T07:00:48.579Z,134.06
2023-05-10T07:03:20.806Z,130.30
2023-05-10T07:05:53.278Z,119.15
2023-05-10T07:08:25.872Z,109.81
2023-05-10T07:10:58.127Z,109.47
2023-05-10T07:13:33.114Z,103.69
2023-05-10T07:16:07.558Z,98.60
2023-05-10T07:18:39.870Z,98.37
2023-05-10T07:21:12.165Z,91.64
2023-05-10T07:23:45.212Z,83.55
2023-05-10T07:26:17.948Z,78.29
2023-05-10T07:28:52.781Z,78.45
2023-05-10T07:31:25.141Z,76.89
2023-05-10T07:33:57.558Z,77.31
2023-05-10T07:36:30.018Z,79.72
2023-05-10T07:39:02.361Z,81.84
2023-05-10T07:41:35.834Z,79.42
2023-05-10T07:44:11.773Z,78.84
2023-05-10T07:46:44.167Z,77.09
2023-05-10T07:49:16.411Z,77.33
2023-05-10T07:51:48.612Z,78.64
2023-05-10T07:54:20.860Z,74.37
2023-05-10T07:56:53.422Z,75.36
2023-05-10T07:59:28.253Z,71.40
2023-05-10T08:02:00.513Z,75.22
2023-05-10T08:04:32.802Z,68.48
2023-05-10T08:07:05.157Z,71.01
2023-05-10T08:09:37.389Z,70.49
2023-05-10T08:12:10.510Z,69.95
2023-05-10T08:14:45.275Z,71.69
2023-05-10T08:17:19.687Z,73.85
2023-05-10T08:19:52.266Z,74.24
2023-05-10T08:22:24.469Z,74.13
2023-05-10T08:24:56.972Z,74.67
2023-05-10T08:27:29.175Z,74.46
2023-05-10T08:30:03.985Z,75.55
2023-05-10T08:32:36.284Z,79.22
2023-05-10T08:35:09.043Z,83.19
2023-05-10T08:37:41.250Z,83.35
2023-05-10T08:40:16.360Z,83.79
2023-05-10T08:42:56.151Z,83.31
2023-05-10T08:45:37.021Z,85.79
2023-05-10T08:48:11.954Z,85.30
2023-05-10T08:50:45.824Z,86.66
2023-05-10T08:53:19.909Z,85.11
2023-05-10T08:55:52.974Z,87.08
2023-05-10T08:58:25.632Z,86.49
2023-05-10T09:01:02.127Z,85.31
2023-05-10T09:03:34.752Z,84.61
2023-05-10T09:06:08.071Z,86.60
2023-05-10T09:08:42.811Z,87.82
2023-05-10T09:11:16.815Z,80.04
2023-05-10T09:13:50.930Z,79.04
2023-05-10T09:16:26.464Z,76.31
2023-05-10T09:18:58.695Z,71.24
2023-05-10T09:21:31.835Z,68.90
2023-05-10T09:24:08.912Z,63.91
2023-05-10T09:26:52.501Z,60.21
2023-05-10T09:29:24.825Z,61.69
2023-05-10T09:31:59.609Z,59.29
2023-05-10T09:34:36.828Z,59.68
2023-05-10T09:37:09.301Z,57.07
2023-05-10T09:39:42.560Z,55.46
2023-05-10T09:42:15.520Z,53.87
2023-05-10T09:44:47.731Z,54.12
2023-05-10T09:47:26.066Z,52.51
2023-05-10T09:50:04.035Z,52.98
2023-05-10T09:52:50.287Z,48.63
2023-05-10T09:55:24.750Z,46.06
2023-05-10T09:58:07.968Z,42.62
2023-05-10T10:00:41.686Z,42.77
2023-05-10T10:03:21.406Z,40.06
2023-05-10T10:05:56.834Z,37.41
2023-05-10T10:08:29.951Z,37.88
2023-05-10T10:11:02.576Z,40.31
2023-05-10T10:13:36.017Z,41.07
2023-05-10T10:16:09.329Z,43.78
2023-05-10T10:18:44.476Z,44.47
2023-05-10T10:21:19.898Z,45.94
2023-05-10T10:23:52.216Z,44.48
2023-05-10T10:26:29.867Z,49.43
2023-05-10T10:29:15.238Z,50.18
2023-05-10T10:31:54.810Z,49.89
2023-05-10T10:34:32.823Z,53.16
2023-05-10T10:37:10.827Z,53.22
2023-05-10T10:39:43.015Z,54.25
2023-05-10T10:42:15.239Z,55.60
2023-05-10T10:44:47.381Z,55.06
2023-05-10T10:47:31.177Z,52.76
2023-05-10T10:50:14.161Z,54.26
2023-05-10T10:52:47.416Z,53.96
2023-05-10T10:55:23.623Z,53.27
2023-05-10T10:58:01.978Z,49.78
2023-05-10T11:00:36.007Z,49.71
2023-05-10T11:03:11.816Z,49.09
2023-05-10T11:05:48.102Z,51.34
2023-05-10T11:08:23.283Z,49.39
2023-05-10T11:11:08.317Z,46.30
2023-05-10T11:13:45.494Z,46.24
2023-05-10T11:16:21.660Z,44.93
2023-05-10T11:19:04.834Z,44.11
2023-05-10T11:21:50.904Z,43.61
2023-05-10T11:24:24.797Z,44.48
2023-05-10T11:26:58.238Z,43.72
2023-05-10T11:29:30.480Z,41.81
2023-05-10T11:32:05.624Z,40.06
2023-05-10T11:34:37.850Z,39.31
2023-05-10T11:37:13.812Z,42.66
2023-05-10T11:39:51.634Z,41.43
2023-05-10T11:42:23.965Z,39.73
2023-05-10T11:44:56.207Z,40.13
2023-05-10T11:47:28.569Z,37.55
2023-05-10T11:50:01.966Z,32.58
2023-05-10T11:52:41.180Z,33.08
2023-05-10T11:55:14.037Z,32.91
2023-05-10T11:57:47.133Z,32.69
2023-05-10T12:00:20.209Z,33.36
2023-05-10T12:02:53.229Z,32.70
2023-05-10T12:05:26.440Z,32.33
2023-05-10T12:08:16.570Z,30.43
2023-05-10T12:10:48.739Z,32.57
2023-05-10T12:13:21.749Z,32.61
2023-05-10T12:15:54.037Z,29.95
2023-05-10T12:18:29.194Z,27.25
2023-05-10T12:21:09.047Z,27.74
2023-05-10T12:23:44.326Z,27.89
2023-05-10T12:26:16.847Z,29.48
2023-05-10T12:28:49.190Z,30.72
2023-05-10T12:31:21.880Z,29.26
2023-05-10T12:33:54.063Z,28.20
2023-05-10T12:36:29.080Z,28.62
2023-05-10T12:39:08.615Z,29.07
2023-05-10T12:41:43.371Z,29.15
2023-05-10T12:44:15.897Z,28.98
2023-05-10T12:46:49.079Z,25.19
2023-05-10T12:49:21.297Z,24.76
2023-05-10T12:51:53.452Z,24.96
2023-05-10T12:54:29.019Z,26.64
2023-05-10T12:57:01.244Z,27.11
2023-05-10T12:59:34.289Z,24.04
2023-05-10T13:02:08.081Z,21.06
2023-05-10T13:04:41.260Z,19.65
2023-05-10T13:07:14.051Z,20.56
2023-05-10T13:09:48.829Z,18.79
2023-05-10T13:12:20.984Z,19.33
2023-05-10T13:14:53.164Z,24.26
2023-05-10T13:17:25.380Z,36.88
2023-05-10T13:19:57.531Z,38.93
2023-05-10T13:22:39.890Z,39.14
2023-05-10T13:25:16.201Z,45.46
2023-05-10T13:27:48.460Z,47.01
2023-05-10T13:30:21.651Z,45.29
2023-05-10T13:32:53.850Z,39.54
2023-05-10T13:35:26.604Z,38.90
2023-05-10T13:37:59.429Z,37.64
2023-05-10T13:40:34.456Z,36.54
2023-05-10T13:43:06.629Z,37.50
2023-05-10T13:45:38.841Z,40.40
2023-05-10T13:48:11.123Z,40.93
2023-05-10T13:50:43.278Z,41.64
2023-05-10T13:53:15.514Z,43.43
2023-05-10T13:55:50.345Z,47.65
2023-05-10T13:58:22.621Z,47.13
2023-05-10T14:00:54.792Z,48.15
2023-05-10T14:03:27.030Z,46.25
2023-05-10T14:05:59.453Z,48.46
2023-05-10T14:08:31.629Z,47.19
2023-05-10T14:11:06.475Z,46.41
2023-05-10T14:13:38.694Z,45.56
2023-05-10T14:16:12.628Z,47.59
2023-05-10T14:18:44.882Z,47.56
2023-05-10T14:21:17.126Z,49.01
2023-05-10T14:23:49.316Z,52.31
2023-05-10T14:26:24.135Z,50.80
2023-05-10T14:28:56.356Z,50.77
2023-05-10T14:31:28.639Z,49.01
2023-05-10T14:34:00.941Z,49.74
2023-05-10T14:36:33.557Z,48.04
2023-05-10T14:39:06.242Z,47.06
2023-05-10T14:41:42.096Z,51.88
2023-05-10T14:44:14.281Z,51.39
2023-05-10T14:46:46.439Z,51.93
2023-05-10T14:49:18.555Z,57.41
2023-05-10T14:51:50.744Z,57.35
2023-05-10T14:54:22.926Z,59.10
2023-05-10T14:56:57.886Z,60.41
2023-05-10T14:59:30.075Z,63.05
2023-05-10T15:02:02.789Z,61.46
2023-05-10T15:04:35.630Z,57.08
2023-05-10T15:07:08.470Z,59.82
2023-05-10T15:09:40.636Z,61.93
2023-05-10T15:12:15.450Z,58.96
2023-05-10T15:14:47.634Z,58.08
2023-05-10T15:17:20.069Z,56.38
2023-05-10T15:19:52.434Z,58.24
2023-05-10T15:22:25.157Z,57.71
2023-05-10T15:24:57.340Z,60.44
2023-05-10T15:27:32.171Z,57.56
2023-05-10T15:30:04.572Z,58.84
2023-05-10T15:32:36.893Z,55.46
2023-05-10T15:35:10.524Z,60.24
2023-05-10T15:37:42.808Z,58.64
2023-05-10T15:40:15.927Z,57.91
2023-05-10T15:42:50.754Z,57.48
2023-05-10T15:45:23.842Z,58.75
2023-05-10T15:47:56.187Z,57.69
2023-05-10T15:50:28.327Z,59.15
2023-05-10T15:53:00.656Z,59.02
2023-05-10T15:55:33.107Z,54.72
2023-05-10T15:58:07.935Z,58.74
2023-05-10T16:00:40.167Z,53.24
2023-05-10T16:03:12.775Z,62.22
2023-05-10T16:05:45.087Z,55.72
2023-05-10T16:08:17.381Z,51.66
2023-05-10T16:10:49.738Z,52.43
2023-05-10T16:13:24.567Z,48.81
2023-05-10T16:15:57.794Z,49.61
2023-05-10T16:18:30.126Z,47.10
2023-05-10T16:21:04.030Z,46.53
2023-05-10T16:23:36.912Z,48.61
2023-05-10T16:26:09.318Z,47.76
2023-05-10T16:28:44.113Z,45.47
2023-05-10T16:31:16.368Z,43.75
2023-05-10T16:33:48.729Z,45.72
2023-05-10T16:36:21.094Z,47.21
2023-05-10T16:38:53.262Z,47.38
2023-05-10T16:41:26.617Z,47.34
2023-05-10T16:44:01.747Z,47.65
2023-05-10T16:46:34.088Z,44.86
2023-05-10T16:49:06.320Z,44.45
2023-05-10T16:51:38.471Z,42.77
2023-05-10T16:54:10.838Z,39.09
2023-05-10T16:56:43.275Z,38.06
2023-05-10T16:59:18.057Z,36.01
2023-05-10T17:01:50.313Z,31.42
2023-05-10T17:04:22.613Z,30.40
2023-05-10T17:06:54.963Z,33.19
2023-05-10T17:09:27.151Z,30.58
2023-05-10T17:11:59.293Z,29.79
2023-05-10T17:14:34.125Z,26.22
2023-05-10T17:17:06.986Z,25.72
2023-05-10T17:19:39.296Z,24.31
2023-05-10T17:22:12.049Z,24.27
2023-05-10T17:24:44.308Z,23.65
2023-05-10T17:27:16.753Z,24.52
2023-05-10T17:29:51.677Z,30.32
2023-05-10T17:32:23.977Z,32.05
2023-05-10T17:34:56.220Z,31.85
2023-05-10T17:37:28.530Z,31.32
2023-05-10T17:40:00.701Z,31.99
2023-05-10T17:42:32.823Z,32.14
2023-05-10T17:45:07.979Z,32.76
2023-05-10T17:47:40.254Z,33.94
2023-05-10T17:50:13.949Z,35.24
2023-05-10T17:52:46.687Z,35.66
2023-05-10T17:55:19.507Z,36.31
2023-05-10T17:57:52.029Z,41.26
2023-05-10T18:00:27.248Z,40.33
2023-05-10T18:03:01.996Z,42.86
2023-05-10T18:05:34.429Z,43.74
2023-05-10T18:08:07.486Z,41.34
2023-05-10T18:10:41.741Z,45.62
2023-05-10T18:13:13.961Z,47.86
2023-05-10T18:15:49.154Z,45.46
2023-05-10T18:18:21.752Z,48.03
2023-05-10T18:20:57.814Z,45.98
2023-05-10T18:23:30.599Z,47.89
2023-05-10T18:26:02.946Z,49.31
2023-05-10T18:28:35.340Z,52.45
2023-05-10T18:31:10.369Z,50.72
2023-05-10T18:33:42.510Z,50.40
2023-05-10T18:36:14.988Z,50.69
2023-05-10T18:38:47.342Z,50.64
2023-05-10T18:41:19.621Z,53.94
2023-05-10T18:43:51.849Z,53.95
2023-05-10T18:46:27.426Z,54.62
2023-05-10T18:49:00.195Z,53.26
2023-05-10T18:51:32.487Z,53.75
2023-05-10T18:54:04.653Z,53.28
2023-05-10T18:56:36.771Z,56.00
2023-05-10T18:59:09.024Z,55.71
2023-05-10T19:01:45.082Z,56.21
2023-05-10T19:04:17.353Z,56.58
2023-05-10T19:06:49.841Z,57.94
2023-05-10T19:09:22.200Z,58.62
2023-05-10T19:11:55.486Z,56.76
2023-05-10T19:14:27.961Z,59.16
2023-05-10T19:17:03.401Z,58.12
2023-05-10T19:19:36.474Z,58.19
2023-05-10T19:22:08.646Z,59.59
2023-05-10T19:24:40.906Z,63.36
2023-05-10T19:27:13.277Z,63.37
2023-05-10T19:29:45.612Z,72.08
2023-05-10T19:32:20.481Z,73.24
2023-05-10T19:34:52.741Z,74.20
2023-05-10T19:37:24.963Z,73.36
2023-05-10T19:39:57.192Z,69.07
2023-05-10T19:42:29.426Z,68.60
2023-05-10T19:45:01.707Z,66.68
2023-05-10T19:47:37.210Z,68.17
2023-05-10T19:50:12.626Z,68.05
2023-05-10T19:52:45.003Z,69.46
2023-05-10T19:55:30.747Z,70.94
2023-05-10T19:58:03.833Z,71.97
2023-05-10T20:00:36.073Z,70.81
2023-05-10T20:03:11.361Z,69.94
2023-05-10T20:05:43.886Z,72.03
2023-05-10T20:08:16.414Z,73.21
2023-05-10T20:10:48.790Z,72.11
2023-05-10T20:13:21.037Z,70.14
2023-05-10T20:15:53.254Z,75.58
2023-05-10T20:18:28.138Z,76.26
2023-05-10T20:21:01.724Z,75.44
2023-05-10T20:23:33.984Z,80.61
2023-05-10T20:26:06.283Z,77.15
2023-05-10T20:28:38.553Z,81.04
2023-05-10T20:31:10.919Z,77.99
2023-05-10T20:33:45.809Z,77.86
2023-05-10T20:36:18.203Z,79.67
2023-05-10T20:38:50.635Z,74.31
2023-05-10T20:41:22.927Z,73.41
2023-05-10T20:43:55.041Z,74.00
2023-05-10T20:46:27.690Z,74.44
2023-05-10T20:49:02.714Z,74.69
2023-05-10T20:51:34.957Z,72.67
2023-05-10T20:54:07.231Z,73.61
2023-05-10T20:56:39.454Z,70.51
2023-05-10T20:59:11.758Z,74.08
2023-05-10T21:01:44.016Z,74.52
2023-05-10T21:04:18.808Z,75.46
2023-05-10T21:06:51.210Z,75.74
2023-05-10T21:09:23.420Z,75.43
2023-05-10T21:11:55.803Z,74.67
2023-05-10T21:14:28.013Z,73.20
2023-05-10T21:17:00.327Z,73.64
2023-05-10T21:19:35.128Z,72.14
2023-05-10T21:22:07.960Z,73.68
2023-05-10T21:24:40.212Z,74.75
2023-05-10T21:27:12.484Z,73.63
2023-05-10T21:29:44.675Z,72.85
2023-05-10T21:32:17.476Z,71.77
2023-05-10T21:34:52.398Z,72.24
2023-05-10T21:37:24.663Z,71.36
2023-05-10T21:39:56.908Z,75.00
2023-05-10T21:42:29.061Z,74.29
2023-05-10T21:45:01.435Z,75.48
2023-05-10T21:47:33.626Z,76.76
2023-05-10T21:50:10.207Z,73.75
2023-05-10T21:52:43.252Z,75.65
2023-05-10T21:55:15.561Z,75.19
2023-05-10T21:57:47.919Z,75.32
2023-05-10T22:00:21.109Z,75.02
2023-05-10T22:02:53.446Z,72.74
2023-05-10T22:05:28.454Z,72.96
2023-05-10T22:08:00.758Z,69.34
2023-05-10T22:10:33.022Z,72.43
2023-05-10T22:13:05.451Z,71.97
2023-05-10T22:15:37.788Z,70.65
2023-05-10T22:18:10.187Z,70.62
2023-05-10T22:20:45.032Z,71.86
2023-05-10T22:23:17.225Z,75.21
2023-05-10T22:25:49.570Z,71.90
2023-05-10T22:28:21.777Z,74.92
2023-05-10T22:30:54.028Z,76.11
2023-05-10T22:33:26.272Z,73.94
2023-05-10T22:36:01.191Z,77.51
2023-05-10T22:38:33.415Z,75.65
2023-05-10T22:41:05.605Z,80.48
2023-05-10T22:43:37.843Z,77.64
2023-05-10T22:46:10.234Z,81.92
2023-05-10T22:48:42.416Z,76.66
2023-05-10T22:51:17.245Z,79.40
2023-05-10T22:53:49.921Z,79.74
2023-05-10T22:56:22.826Z,80.51
2023-05-10T22:58:55.759Z,81.99
2023-05-10T23:01:28.127Z,82.12
2023-05-10T23:04:01.209Z,82.89
2023-05-10T23:06:36.252Z,82.75
2023-05-10T23:09:08.590Z,85.02
2023-05-10T23:11:41.001Z,85.39
2023-05-10T23:14:13.230Z,88.16
2023-05-10T23:16:45.955Z,86.58
2023-05-10T23:19:18.182Z,89.50
2023-05-10T23:21:53.637Z,90.70
2023-05-10T23:24:25.902Z,89.70
2023-05-10T23:26:58.351Z,92.52
2023-05-10T23:29:32.174Z,92.95
2023-05-10T23:32:04.427Z,95.79
2023-05-10T23:34:36.647Z,91.03
2023-05-10T23:37:11.613Z,95.05
2023-05-10T23:39:43.860Z,94.99
2023-05-10T23:42:16.019Z,93.54
2023-05-10T23:44:48.233Z,96.84
2023-05-10T23:47:20.643Z,93.26
2023-05-10T23:49:54.400Z,96.14
2023-05-10T23:52:29.857Z,93.87
2023-05-10T23:55:02.521Z,93.59
2023-05-10T23:57:34.739Z,97.49
